sensor_id;sensor_type;location;lat;lon;timestamp;P1;durP1;ratioP1;P2;durP2;ratioP2
78716;SDS011;68045;50.042;14.432;2024-02-26T00:03:19;39.15;;;19.95;;
78716;SDS011;68045;50.042;14.432;2024-02-26T00:07:21;39.83;;;18.63;;
78716;SDS011;68045;50.042;14.432;2024-02-26T00:11:22;45.50;;;19.65;;
78716;SDS011;68045;50.042;14.432;2024-02-26T00:15:23;44.35;;;18.55;;
78716;SDS011;68045;50.042;14.432;2024-02-26T00:19:26;40.40;;;18.75;;
78716;SDS011;68045;50.042;14.432;2024-02-26T00:23:26;43.45;;;18.80;;
78716;SDS011;68045;50.042;14.432;2024-02-26T00:27:28;39.22;;;17.60;;
78716;SDS011;68045;50.042;14.432;2024-02-26T00:31:28;42.70;;;18.20;;
78716;SDS011;68045;50.042;14.432;2024-02-26T00:35:29;40.80;;;19.63;;
78716;SDS011;68045;50.042;14.432;2024-02-26T00:39:30;41.50;;;19.38;;
78716;SDS011;68045;50.042;14.432;2024-02-26T00:43:31;38.08;;;18.35;;
78716;SDS011;68045;50.042;14.432;2024-02-26T00:47:33;36.97;;;18.20;;
78716;SDS011;68045;50.042;14.432;2024-02-26T00:51:34;41.70;;;19.73;;
78716;SDS011;68045;50.042;14.432;2024-02-26T00:55:35;39.22;;;19.00;;
78716;SDS011;68045;50.042;14.432;2024-02-26T00:59:35;34.70;;;18.20;;
78716;SDS011;68045;50.042;14.432;2024-02-26T01:03:36;36.45;;;17.80;;
78716;SDS011;68045;50.042;14.432;2024-02-26T01:07:37;37.70;;;16.33;;
78716;SDS011;68045;50.042;14.432;2024-02-26T01:11:40;32.60;;;16.48;;
78716;SDS011;68045;50.042;14.432;2024-02-26T01:15:41;31.27;;;14.90;;
78716;SDS011;68045;50.042;14.432;2024-02-26T01:19:44;38.78;;;17.00;;
78716;SDS011;68045;50.042;14.432;2024-02-26T01:23:45;38.40;;;16.95;;
78716;SDS011;68045;50.042;14.432;2024-02-26T01:27:46;38.92;;;17.80;;
78716;SDS011;68045;50.042;14.432;2024-02-26T01:31:48;38.63;;;15.80;;
78716;SDS011;68045;50.042;14.432;2024-02-26T01:35:49;38.03;;;17.38;;
78716;SDS011;68045;50.042;14.432;2024-02-26T01:39:50;33.53;;;15.55;;
78716;SDS011;68045;50.042;14.432;2024-02-26T01:43:51;31.02;;;14.85;;
78716;SDS011;68045;50.042;14.432;2024-02-26T01:47:52;37.10;;;17.40;;
78716;SDS011;68045;50.042;14.432;2024-02-26T01:51:53;35.10;;;16.50;;
78716;SDS011;68045;50.042;14.432;2024-02-26T01:59:58;31.40;;;15.23;;
78716;SDS011;68045;50.042;14.432;2024-02-26T02:03:59;28.73;;;13.65;;
78716;SDS011;68045;50.042;14.432;2024-02-26T02:08:00;28.58;;;13.38;;
78716;SDS011;68045;50.042;14.432;2024-02-26T02:12:03;36.60;;;15.63;;
78716;SDS011;68045;50.042;14.432;2024-02-26T02:16:05;31.65;;;15.35;;
78716;SDS011;68045;50.042;14.432;2024-02-26T02:20:09;34.80;;;16.40;;
78716;SDS011;68045;50.042;14.432;2024-02-26T02:24:16;33.30;;;15.07;;
78716;SDS011;68045;50.042;14.432;2024-02-26T02:28:16;31.13;;;14.27;;
78716;SDS011;68045;50.042;14.432;2024-02-26T02:32:18;34.15;;;15.38;;
78716;SDS011;68045;50.042;14.432;2024-02-26T02:36:20;34.88;;;16.08;;
78716;SDS011;68045;50.042;14.432;2024-02-26T02:40:21;36.13;;;16.77;;
78716;SDS011;68045;50.042;14.432;2024-02-26T02:44:22;31.75;;;15.57;;
78716;SDS011;68045;50.042;14.432;2024-02-26T02:48:23;38.03;;;17.35;;
78716;SDS011;68045;50.042;14.432;2024-02-26T02:52:24;31.65;;;15.55;;
78716;SDS011;68045;50.042;14.432;2024-02-26T02:56:25;28.50;;;14.13;;
78716;SDS011;68045;50.042;14.432;2024-02-26T03:00:26;32.47;;;15.05;;
78716;SDS011;68045;50.042;14.432;2024-02-26T03:04:26;35.05;;;16.25;;
78716;SDS011;68045;50.042;14.432;2024-02-26T03:08:27;33.13;;;16.05;;
78716;SDS011;68045;50.042;14.432;2024-02-26T03:12:29;32.97;;;14.90;;
78716;SDS011;68045;50.042;14.432;2024-02-26T03:16:30;35.20;;;16.92;;
78716;SDS011;68045;50.042;14.432;2024-02-26T03:20:33;36.90;;;15.93;;
78716;SDS011;68045;50.042;14.432;2024-02-26T03:24:34;35.95;;;14.10;;
78716;SDS011;68045;50.042;14.432;2024-02-26T03:28:35;32.92;;;14.90;;
78716;SDS011;68045;50.042;14.432;2024-02-26T03:32:36;30.20;;;14.00;;
78716;SDS011;68045;50.042;14.432;2024-02-26T03:36:37;35.20;;;14.68;;
78716;SDS011;68045;50.042;14.432;2024-02-26T03:40:38;30.65;;;13.55;;
78716;SDS011;68045;50.042;14.432;2024-02-26T03:44:39;28.13;;;12.82;;
78716;SDS011;68045;50.042;14.432;2024-02-26T03:48:40;34.40;;;14.13;;
78716;SDS011;68045;50.042;14.432;2024-02-26T03:52:42;27.33;;;13.70;;
78716;SDS011;68045;50.042;14.432;2024-02-26T03:56:44;33.45;;;14.52;;
78716;SDS011;68045;50.042;14.432;2024-02-26T04:00:45;29.42;;;14.68;;
78716;SDS011;68045;50.042;14.432;2024-02-26T04:08:48;23.92;;;12.30;;
78716;SDS011;68045;50.042;14.432;2024-02-26T04:12:49;33.78;;;14.77;;
78716;SDS011;68045;50.042;14.432;2024-02-26T04:16:50;32.40;;;14.50;;
78716;SDS011;68045;50.042;14.432;2024-02-26T04:20:52;35.42;;;15.18;;
78716;SDS011;68045;50.042;14.432;2024-02-26T04:24:53;37.05;;;15.13;;
78716;SDS011;68045;50.042;14.432;2024-02-26T04:28:54;39.50;;;15.75;;
78716;SDS011;68045;50.042;14.432;2024-02-26T04:32:55;39.13;;;15.23;;
78716;SDS011;68045;50.042;14.432;2024-02-26T04:36:56;27.55;;;11.52;;
78716;SDS011;68045;50.042;14.432;2024-02-26T04:40:57;32.00;;;12.02;;
78716;SDS011;68045;50.042;14.432;2024-02-26T04:44:58;36.90;;;14.93;;
78716;SDS011;68045;50.042;14.432;2024-02-26T04:48:59;31.80;;;13.75;;
78716;SDS011;68045;50.042;14.432;2024-02-26T04:53:00;31.88;;;15.20;;
78716;SDS011;68045;50.042;14.432;2024-02-26T04:57:01;26.73;;;12.13;;
78716;SDS011;68045;50.042;14.432;2024-02-26T05:01:03;32.08;;;13.45;;
78716;SDS011;68045;50.042;14.432;2024-02-26T05:05:05;38.33;;;15.57;;
78716;SDS011;68045;50.042;14.432;2024-02-26T05:09:06;31.45;;;13.93;;
78716;SDS011;68045;50.042;14.432;2024-02-26T05:13:07;30.52;;;14.57;;
78716;SDS011;68045;50.042;14.432;2024-02-26T05:17:08;29.15;;;14.25;;
78716;SDS011;68045;50.042;14.432;2024-02-26T05:21:09;36.05;;;15.15;;
78716;SDS011;68045;50.042;14.432;2024-02-26T05:25:10;33.45;;;15.65;;
78716;SDS011;68045;50.042;14.432;2024-02-26T05:29:11;31.58;;;15.05;;
78716;SDS011;68045;50.042;14.432;2024-02-26T05:33:12;36.40;;;15.80;;
78716;SDS011;68045;50.042;14.432;2024-02-26T05:37:14;32.42;;;14.20;;
78716;SDS011;68045;50.042;14.432;2024-02-26T05:41:16;33.05;;;15.57;;
78716;SDS011;68045;50.042;14.432;2024-02-26T05:45:20;29.95;;;14.75;;
78716;SDS011;68045;50.042;14.432;2024-02-26T05:49:23;31.23;;;15.38;;
78716;SDS011;68045;50.042;14.432;2024-02-26T05:53:23;33.33;;;14.15;;
78716;SDS011;68045;50.042;14.432;2024-02-26T05:57:24;35.47;;;15.98;;
78716;SDS011;68045;50.042;14.432;2024-02-26T06:01:25;38.20;;;15.75;;
78716;SDS011;68045;50.042;14.432;2024-02-26T06:05:26;40.08;;;15.88;;
78716;SDS011;68045;50.042;14.432;2024-02-26T06:09:27;36.10;;;15.98;;
78716;SDS011;68045;50.042;14.432;2024-02-26T06:13:28;39.90;;;15.85;;
78716;SDS011;68045;50.042;14.432;2024-02-26T06:17:31;29.33;;;14.85;;
78716;SDS011;68045;50.042;14.432;2024-02-26T06:21:32;35.63;;;16.85;;
78716;SDS011;68045;50.042;14.432;2024-02-26T06:25:34;42.30;;;17.20;;
78716;SDS011;68045;50.042;14.432;2024-02-26T06:29:34;36.40;;;15.82;;
78716;SDS011;68045;50.042;14.432;2024-02-26T06:33:35;34.72;;;15.85;;
78716;SDS011;68045;50.042;14.432;2024-02-26T06:37:36;33.05;;;15.55;;
78716;SDS011;68045;50.042;14.432;2024-02-26T06:41:37;33.35;;;13.75;;
78716;SDS011;68045;50.042;14.432;2024-02-26T06:45:39;33.88;;;14.27;;
78716;SDS011;68045;50.042;14.432;2024-02-26T06:49:40;30.55;;;13.65;;
78716;SDS011;68045;50.042;14.432;2024-02-26T06:53:41;30.50;;;13.40;;
78716;SDS011;68045;50.042;14.432;2024-02-26T06:57:43;29.33;;;13.13;;
78716;SDS011;68045;50.042;14.432;2024-02-26T07:01:44;32.45;;;13.88;;
78716;SDS011;68045;50.042;14.432;2024-02-26T07:05:45;28.98;;;13.73;;
78716;SDS011;68045;50.042;14.432;2024-02-26T07:09:46;28.25;;;12.55;;
78716;SDS011;68045;50.042;14.432;2024-02-26T07:13:48;30.67;;;14.10;;
78716;SDS011;68045;50.042;14.432;2024-02-26T07:17:50;29.73;;;13.95;;
78716;SDS011;68045;50.042;14.432;2024-02-26T07:21:51;25.83;;;12.57;;
78716;SDS011;68045;50.042;14.432;2024-02-26T07:25:52;29.33;;;12.90;;
78716;SDS011;68045;50.042;14.432;2024-02-26T07:29:53;34.28;;;13.95;;
78716;SDS011;68045;50.042;14.432;2024-02-26T07:33:54;27.92;;;13.10;;
78716;SDS011;68045;50.042;14.432;2024-02-26T07:37:55;29.77;;;13.95;;
78716;SDS011;68045;50.042;14.432;2024-02-26T07:41:57;37.65;;;15.75;;
78716;SDS011;68045;50.042;14.432;2024-02-26T07:45:58;30.10;;;14.50;;
78716;SDS011;68045;50.042;14.432;2024-02-26T07:49:59;29.23;;;13.98;;
78716;SDS011;68045;50.042;14.432;2024-02-26T07:54:00;38.72;;;15.13;;
78716;SDS011;68045;50.042;14.432;2024-02-26T07:58:01;33.13;;;14.95;;
78716;SDS011;68045;50.042;14.432;2024-02-26T08:02:04;40.47;;;15.82;;
78716;SDS011;68045;50.042;14.432;2024-02-26T08:06:07;33.63;;;14.45;;
78716;SDS011;68045;50.042;14.432;2024-02-26T08:10:08;31.30;;;13.57;;
78716;SDS011;68045;50.042;14.432;2024-02-26T08:14:10;31.13;;;15.25;;
78716;SDS011;68045;50.042;14.432;2024-02-26T08:18:11;36.88;;;15.52;;
78716;SDS011;68045;50.042;14.432;2024-02-26T08:22:12;31.83;;;14.65;;
78716;SDS011;68045;50.042;14.432;2024-02-26T08:26:16;38.72;;;15.57;;
78716;SDS011;68045;50.042;14.432;2024-02-26T08:30:17;29.90;;;13.50;;
78716;SDS011;68045;50.042;14.432;2024-02-26T08:34:18;32.75;;;14.48;;
78716;SDS011;68045;50.042;14.432;2024-02-26T08:38:19;36.97;;;14.52;;
78716;SDS011;68045;50.042;14.432;2024-02-26T08:42:20;43.95;;;17.92;;
78716;SDS011;68045;50.042;14.432;2024-02-26T08:46:22;36.28;;;15.80;;
78716;SDS011;68045;50.042;14.432;2024-02-26T08:50:23;34.88;;;15.13;;
78716;SDS011;68045;50.042;14.432;2024-02-26T08:54:24;37.20;;;14.32;;
78716;SDS011;68045;50.042;14.432;2024-02-26T08:58:26;38.30;;;15.23;;
78716;SDS011;68045;50.042;14.432;2024-02-26T09:02:28;39.20;;;15.57;;
78716;SDS011;68045;50.042;14.432;2024-02-26T09:06:30;31.58;;;13.57;;
78716;SDS011;68045;50.042;14.432;2024-02-26T09:10:31;35.60;;;14.18;;
78716;SDS011;68045;50.042;14.432;2024-02-26T09:14:34;30.80;;;13.20;;
78716;SDS011;68045;50.042;14.432;2024-02-26T09:18:35;28.95;;;13.48;;
78716;SDS011;68045;50.042;14.432;2024-02-26T09:22:36;31.70;;;13.88;;
78716;SDS011;68045;50.042;14.432;2024-02-26T09:26:38;34.38;;;14.90;;
78716;SDS011;68045;50.042;14.432;2024-02-26T09:30:39;31.88;;;15.05;;
78716;SDS011;68045;50.042;14.432;2024-02-26T09:34:40;28.48;;;14.73;;
78716;SDS011;68045;50.042;14.432;2024-02-26T09:38:43;29.95;;;13.80;;
78716;SDS011;68045;50.042;14.432;2024-02-26T09:42:44;30.33;;;13.50;;
78716;SDS011;68045;50.042;14.432;2024-02-26T09:46:50;30.05;;;13.57;;
78716;SDS011;68045;50.042;14.432;2024-02-26T09:50:52;30.88;;;14.40;;
78716;SDS011;68045;50.042;14.432;2024-02-26T09:54:53;31.52;;;13.13;;
78716;SDS011;68045;50.042;14.432;2024-02-26T09:58:55;23.15;;;12.23;;
78716;SDS011;68045;50.042;14.432;2024-02-26T10:02:58;24.70;;;12.32;;
78716;SDS011;68045;50.042;14.432;2024-02-26T10:07:05;28.77;;;11.48;;
78716;SDS011;68045;50.042;14.432;2024-02-26T10:11:10;25.40;;;11.50;;
78716;SDS011;68045;50.042;14.432;2024-02-26T10:15:12;28.00;;;11.60;;
78716;SDS011;68045;50.042;14.432;2024-02-26T10:19:24;31.05;;;13.60;;
78716;SDS011;68045;50.042;14.432;2024-02-26T10:23:27;27.95;;;12.45;;
78716;SDS011;68045;50.042;14.432;2024-02-26T10:27:28;31.45;;;14.43;;
78716;SDS011;68045;50.042;14.432;2024-02-26T10:31:31;38.90;;;16.50;;
78716;SDS011;68045;50.042;14.432;2024-02-26T10:35:32;37.67;;;17.35;;
78716;SDS011;68045;50.042;14.432;2024-02-26T10:39:35;35.53;;;15.18;;
78716;SDS011;68045;50.042;14.432;2024-02-26T10:43:37;27.38;;;12.98;;
78716;SDS011;68045;50.042;14.432;2024-02-26T10:47:40;38.20;;;13.65;;
78716;SDS011;68045;50.042;14.432;2024-02-26T10:51:45;27.63;;;13.00;;
78716;SDS011;68045;50.042;14.432;2024-02-26T10:56:03;26.85;;;14.38;;
78716;SDS011;68045;50.042;14.432;2024-02-26T11:00:06;36.05;;;15.77;;
78716;SDS011;68045;50.042;14.432;2024-02-26T11:04:10;38.15;;;13.13;;
78716;SDS011;68045;50.042;14.432;2024-02-26T11:08:13;24.38;;;12.60;;
78716;SDS011;68045;50.042;14.432;2024-02-26T11:12:15;26.45;;;14.00;;
78716;SDS011;68045;50.042;14.432;2024-02-26T11:16:17;33.33;;;13.30;;
78716;SDS011;68045;50.042;14.432;2024-02-26T11:20:20;22.85;;;11.20;;
78716;SDS011;68045;50.042;14.432;2024-02-26T11:24:22;27.75;;;11.43;;
78716;SDS011;68045;50.042;14.432;2024-02-26T11:28:27;22.95;;;11.07;;
78716;SDS011;68045;50.042;14.432;2024-02-26T11:32:30;24.83;;;11.27;;
78716;SDS011;68045;50.042;14.432;2024-02-26T11:36:31;29.15;;;11.95;;
78716;SDS011;68045;50.042;14.432;2024-02-26T11:40:38;26.95;;;12.68;;
78716;SDS011;68045;50.042;14.432;2024-02-26T11:44:41;24.55;;;11.20;;
78716;SDS011;68045;50.042;14.432;2024-02-26T11:48:43;31.50;;;13.00;;
78716;SDS011;68045;50.042;14.432;2024-02-26T11:53:18;31.27;;;14.10;;
78716;SDS011;68045;50.042;14.432;2024-02-26T11:57:28;30.95;;;14.00;;
78716;SDS011;68045;50.042;14.432;2024-02-26T12:05:43;26.75;;;11.73;;
78716;SDS011;68045;50.042;14.432;2024-02-26T12:09:44;29.10;;;12.60;;
78716;SDS011;68045;50.042;14.432;2024-02-26T12:13:46;26.92;;;11.07;;
78716;SDS011;68045;50.042;14.432;2024-02-26T12:17:50;25.15;;;10.98;;
78716;SDS011;68045;50.042;14.432;2024-02-26T12:21:52;25.75;;;10.75;;
78716;SDS011;68045;50.042;14.432;2024-02-26T12:25:59;28.35;;;12.38;;
78716;SDS011;68045;50.042;14.432;2024-02-26T12:30:01;24.15;;;11.90;;
78716;SDS011;68045;50.042;14.432;2024-02-26T12:34:07;22.77;;;10.57;;
78716;SDS011;68045;50.042;14.432;2024-02-26T12:38:10;20.65;;;10.50;;
78716;SDS011;68045;50.042;14.432;2024-02-26T12:42:11;21.17;;;11.25;;
78716;SDS011;68045;50.042;14.432;2024-02-26T12:46:12;22.08;;;10.95;;
78716;SDS011;68045;50.042;14.432;2024-02-26T12:50:16;21.55;;;10.90;;
78716;SDS011;68045;50.042;14.432;2024-02-26T12:54:16;30.15;;;11.75;;
78716;SDS011;68045;50.042;14.432;2024-02-26T12:58:18;18.55;;;9.27;;
78716;SDS011;68045;50.042;14.432;2024-02-26T13:02:20;21.00;;;11.15;;
78716;SDS011;68045;50.042;14.432;2024-02-26T13:06:21;24.50;;;10.55;;
78716;SDS011;68045;50.042;14.432;2024-02-26T13:10:23;20.60;;;10.90;;
78716;SDS011;68045;50.042;14.432;2024-02-26T13:14:26;20.42;;;10.73;;
78716;SDS011;68045;50.042;14.432;2024-02-26T13:18:27;22.58;;;10.38;;
78716;SDS011;68045;50.042;14.432;2024-02-26T13:22:31;22.90;;;10.88;;
78716;SDS011;68045;50.042;14.432;2024-02-26T13:26:35;18.65;;;9.85;;
78716;SDS011;68045;50.042;14.432;2024-02-26T13:30:36;21.08;;;10.40;;
78716;SDS011;68045;50.042;14.432;2024-02-26T13:34:37;19.50;;;10.18;;
78716;SDS011;68045;50.042;14.432;2024-02-26T13:38:38;22.33;;;11.32;;
78716;SDS011;68045;50.042;14.432;2024-02-26T13:42:38;27.85;;;10.60;;
78716;SDS011;68045;50.042;14.432;2024-02-26T13:46:40;22.70;;;10.10;;
78716;SDS011;68045;50.042;14.432;2024-02-26T13:50:42;27.08;;;11.07;;
78716;SDS011;68045;50.042;14.432;2024-02-26T13:54:44;21.35;;;10.00;;
78716;SDS011;68045;50.042;14.432;2024-02-26T13:58:47;25.25;;;11.10;;
78716;SDS011;68045;50.042;14.432;2024-02-26T14:02:48;23.48;;;10.75;;
78716;SDS011;68045;50.042;14.432;2024-02-26T14:06:49;20.77;;;10.35;;
78716;SDS011;68045;50.042;14.432;2024-02-26T14:10:51;20.83;;;10.10;;
78716;SDS011;68045;50.042;14.432;2024-02-26T14:14:53;23.52;;;10.60;;
78716;SDS011;68045;50.042;14.432;2024-02-26T14:18:55;23.35;;;11.18;;
78716;SDS011;68045;50.042;14.432;2024-02-26T14:22:56;24.20;;;11.70;;
78716;SDS011;68045;50.042;14.432;2024-02-26T14:26:58;24.30;;;10.95;;
78716;SDS011;68045;50.042;14.432;2024-02-26T14:30:59;19.02;;;9.60;;
78716;SDS011;68045;50.042;14.432;2024-02-26T14:35:00;21.17;;;10.65;;
78716;SDS011;68045;50.042;14.432;2024-02-26T14:39:03;21.45;;;11.23;;
78716;SDS011;68045;50.042;14.432;2024-02-26T14:43:05;23.27;;;11.38;;
78716;SDS011;68045;50.042;14.432;2024-02-26T14:47:06;20.98;;;10.38;;
78716;SDS011;68045;50.042;14.432;2024-02-26T14:51:08;22.15;;;9.82;;
78716;SDS011;68045;50.042;14.432;2024-02-26T14:55:09;23.20;;;11.73;;
78716;SDS011;68045;50.042;14.432;2024-02-26T14:59:10;28.35;;;11.48;;
78716;SDS011;68045;50.042;14.432;2024-02-26T15:03:11;22.35;;;11.50;;
78716;SDS011;68045;50.042;14.432;2024-02-26T15:07:13;22.00;;;10.93;;
78716;SDS011;68045;50.042;14.432;2024-02-26T15:11:14;21.08;;;10.55;;
78716;SDS011;68045;50.042;14.432;2024-02-26T15:19:18;23.15;;;10.55;;
78716;SDS011;68045;50.042;14.432;2024-02-26T15:23:19;18.83;;;10.60;;
78716;SDS011;68045;50.042;14.432;2024-02-26T15:27:19;28.33;;;11.68;;
78716;SDS011;68045;50.042;14.432;2024-02-26T15:31:21;25.25;;;12.50;;
78716;SDS011;68045;50.042;14.432;2024-02-26T15:35:22;25.80;;;11.77;;
78716;SDS011;68045;50.042;14.432;2024-02-26T15:39:23;26.13;;;11.93;;
78716;SDS011;68045;50.042;14.432;2024-02-26T15:43:24;22.27;;;11.32;;
78716;SDS011;68045;50.042;14.432;2024-02-26T15:47:26;27.55;;;11.98;;
78716;SDS011;68045;50.042;14.432;2024-02-26T15:51:26;26.20;;;12.30;;
78716;SDS011;68045;50.042;14.432;2024-02-26T15:55:28;26.58;;;11.52;;
78716;SDS011;68045;50.042;14.432;2024-02-26T15:59:28;22.42;;;10.88;;
78716;SDS011;68045;50.042;14.432;2024-02-26T16:03:29;22.33;;;10.55;;
78716;SDS011;68045;50.042;14.432;2024-02-26T16:11:44;24.05;;;11.55;;
78716;SDS011;68045;50.042;14.432;2024-02-26T16:15:47;22.02;;;10.63;;
78716;SDS011;68045;50.042;14.432;2024-02-26T16:19:54;23.17;;;11.15;;
78716;SDS011;68045;50.042;14.432;2024-02-26T16:23:54;24.58;;;11.38;;
78716;SDS011;68045;50.042;14.432;2024-02-26T16:27:55;27.17;;;11.55;;
78716;SDS011;68045;50.042;14.432;2024-02-26T16:31:56;22.17;;;11.35;;
78716;SDS011;68045;50.042;14.432;2024-02-26T16:35:57;25.95;;;12.07;;
78716;SDS011;68045;50.042;14.432;2024-02-26T16:39:59;23.23;;;11.15;;
78716;SDS011;68045;50.042;14.432;2024-02-26T16:44:01;23.20;;;11.23;;
78716;SDS011;68045;50.042;14.432;2024-02-26T16:48:03;25.10;;;11.95;;
78716;SDS011;68045;50.042;14.432;2024-02-26T16:52:04;21.00;;;11.02;;
78716;SDS011;68045;50.042;14.432;2024-02-26T16:56:08;27.10;;;11.30;;
78716;SDS011;68045;50.042;14.432;2024-02-26T17:00:10;24.17;;;11.85;;
78716;SDS011;68045;50.042;14.432;2024-02-26T17:04:13;25.58;;;11.55;;
78716;SDS011;68045;50.042;14.432;2024-02-26T17:08:14;29.58;;;11.98;;
78716;SDS011;68045;50.042;14.432;2024-02-26T17:12:15;25.00;;;11.68;;
78716;SDS011;68045;50.042;14.432;2024-02-26T17:20:18;20.30;;;10.82;;
78716;SDS011;68045;50.042;14.432;2024-02-26T17:24:22;24.50;;;11.85;;
78716;SDS011;68045;50.042;14.432;2024-02-26T17:28:24;24.98;;;11.00;;
78716;SDS011;68045;50.042;14.432;2024-02-26T17:32:25;25.25;;;11.63;;
78716;SDS011;68045;50.042;14.432;2024-02-26T17:36:26;22.38;;;11.65;;
78716;SDS011;68045;50.042;14.432;2024-02-26T17:40:27;24.92;;;11.90;;
78716;SDS011;68045;50.042;14.432;2024-02-26T17:44:38;29.40;;;13.50;;
78716;SDS011;68045;50.042;14.432;2024-02-26T17:48:39;23.98;;;11.50;;
78716;SDS011;68045;50.042;14.432;2024-02-26T17:52:42;31.00;;;13.45;;
78716;SDS011;68045;50.042;14.432;2024-02-26T17:56:43;30.30;;;14.02;;
78716;SDS011;68045;50.042;14.432;2024-02-26T18:00:45;31.42;;;13.77;;
78716;SDS011;68045;50.042;14.432;2024-02-26T18:04:49;26.08;;;13.55;;
78716;SDS011;68045;50.042;14.432;2024-02-26T18:08:51;31.00;;;16.48;;
78716;SDS011;68045;50.042;14.432;2024-02-26T18:12:52;26.88;;;13.30;;
78716;SDS011;68045;50.042;14.432;2024-02-26T18:16:58;25.48;;;12.88;;
78716;SDS011;68045;50.042;14.432;2024-02-26T18:20:59;27.17;;;12.90;;
78716;SDS011;68045;50.042;14.432;2024-02-26T18:25:01;25.58;;;13.32;;
78716;SDS011;68045;50.042;14.432;2024-02-26T18:29:02;26.80;;;13.32;;
78716;SDS011;68045;50.042;14.432;2024-02-26T18:33:04;27.83;;;12.85;;
78716;SDS011;68045;50.042;14.432;2024-02-26T18:37:05;26.65;;;13.23;;
78716;SDS011;68045;50.042;14.432;2024-02-26T18:41:07;39.92;;;15.18;;
78716;SDS011;68045;50.042;14.432;2024-02-26T18:45:09;30.45;;;14.48;;
78716;SDS011;68045;50.042;14.432;2024-02-26T18:49:11;38.10;;;15.95;;
78716;SDS011;68045;50.042;14.432;2024-02-26T18:53:12;28.15;;;15.27;;
78716;SDS011;68045;50.042;14.432;2024-02-26T18:57:13;40.03;;;18.00;;
78716;SDS011;68045;50.042;14.432;2024-02-26T19:01:14;35.28;;;17.17;;
78716;SDS011;68045;50.042;14.432;2024-02-26T19:05:15;30.75;;;16.42;;
78716;SDS011;68045;50.042;14.432;2024-02-26T19:09:18;37.75;;;18.45;;
78716;SDS011;68045;50.042;14.432;2024-02-26T19:13:18;40.33;;;19.30;;
78716;SDS011;68045;50.042;14.432;2024-02-26T19:17:20;36.45;;;17.80;;
78716;SDS011;68045;50.042;14.432;2024-02-26T19:21:23;35.05;;;17.40;;
78716;SDS011;68045;50.042;14.432;2024-02-26T19:25:25;39.03;;;18.55;;
78716;SDS011;68045;50.042;14.432;2024-02-26T19:29:26;40.35;;;17.20;;
78716;SDS011;68045;50.042;14.432;2024-02-26T19:33:30;40.40;;;18.52;;
78716;SDS011;68045;50.042;14.432;2024-02-26T19:37:32;43.33;;;18.05;;
78716;SDS011;68045;50.042;14.432;2024-02-26T19:45:35;37.63;;;17.67;;
78716;SDS011;68045;50.042;14.432;2024-02-26T19:49:36;42.00;;;19.02;;
78716;SDS011;68045;50.042;14.432;2024-02-26T19:53:36;46.03;;;20.98;;
78716;SDS011;68045;50.042;14.432;2024-02-26T19:57:37;47.47;;;21.52;;
78716;SDS011;68045;50.042;14.432;2024-02-26T20:01:38;47.83;;;22.63;;
78716;SDS011;68045;50.042;14.432;2024-02-26T20:05:39;49.00;;;23.10;;
78716;SDS011;68045;50.042;14.432;2024-02-26T20:09:41;53.95;;;22.65;;
78716;SDS011;68045;50.042;14.432;2024-02-26T20:13:43;47.75;;;23.00;;
78716;SDS011;68045;50.042;14.432;2024-02-26T20:17:44;57.92;;;24.15;;
78716;SDS011;68045;50.042;14.432;2024-02-26T20:21:45;51.47;;;24.42;;
78716;SDS011;68045;50.042;14.432;2024-02-26T20:25:45;48.55;;;24.02;;
78716;SDS011;68045;50.042;14.432;2024-02-26T20:29:48;47.80;;;23.83;;
78716;SDS011;68045;50.042;14.432;2024-02-26T20:33:49;57.42;;;24.33;;
78716;SDS011;68045;50.042;14.432;2024-02-26T20:37:50;55.45;;;23.17;;
78716;SDS011;68045;50.042;14.432;2024-02-26T20:41:50;43.58;;;21.35;;
78716;SDS011;68045;50.042;14.432;2024-02-26T20:45:51;39.45;;;17.77;;
78716;SDS011;68045;50.042;14.432;2024-02-26T20:49:52;48.53;;;19.20;;
78716;SDS011;68045;50.042;14.432;2024-02-26T20:53:53;47.78;;;21.60;;
78716;SDS011;68045;50.042;14.432;2024-02-26T20:57:56;48.47;;;21.30;;
78716;SDS011;68045;50.042;14.432;2024-02-26T21:01:58;42.63;;;20.67;;
78716;SDS011;68045;50.042;14.432;2024-02-26T21:05:59;45.28;;;20.00;;
78716;SDS011;68045;50.042;14.432;2024-02-26T21:10:00;42.55;;;18.60;;
78716;SDS011;68045;50.042;14.432;2024-02-26T21:14:02;45.85;;;19.88;;
78716;SDS011;68045;50.042;14.432;2024-02-26T21:18:03;45.85;;;18.42;;
78716;SDS011;68045;50.042;14.432;2024-02-26T21:22:04;43.28;;;17.83;;
78716;SDS011;68045;50.042;14.432;2024-02-26T21:26:07;52.30;;;21.00;;
78716;SDS011;68045;50.042;14.432;2024-02-26T21:30:08;49.78;;;20.17;;
78716;SDS011;68045;50.042;14.432;2024-02-26T21:34:11;47.47;;;19.45;;
78716;SDS011;68045;50.042;14.432;2024-02-26T21:38:13;47.92;;;19.85;;
78716;SDS011;68045;50.042;14.432;2024-02-26T21:42:14;40.13;;;18.13;;
78716;SDS011;68045;50.042;14.432;2024-02-26T21:46:15;39.85;;;18.38;;
78716;SDS011;68045;50.042;14.432;2024-02-26T21:50:16;46.65;;;19.90;;
78716;SDS011;68045;50.042;14.432;2024-02-26T21:54:17;50.90;;;21.15;;
78716;SDS011;68045;50.042;14.432;2024-02-26T21:58:18;56.97;;;22.48;;
78716;SDS011;68045;50.042;14.432;2024-02-26T22:02:19;44.75;;;19.67;;
78716;SDS011;68045;50.042;14.432;2024-02-26T22:06:20;47.95;;;21.13;;
78716;SDS011;68045;50.042;14.432;2024-02-26T22:10:21;41.55;;;19.38;;
78716;SDS011;68045;50.042;14.432;2024-02-26T22:14:22;50.42;;;21.50;;
78716;SDS011;68045;50.042;14.432;2024-02-26T22:18:23;46.35;;;19.98;;
78716;SDS011;68045;50.042;14.432;2024-02-26T22:22:24;42.72;;;21.08;;
78716;SDS011;68045;50.042;14.432;2024-02-26T22:26:26;48.50;;;20.98;;
78716;SDS011;68045;50.042;14.432;2024-02-26T22:30:29;41.90;;;18.98;;
78716;SDS011;68045;50.042;14.432;2024-02-26T22:34:30;60.40;;;23.73;;
78716;SDS011;68045;50.042;14.432;2024-02-26T22:38:31;44.53;;;19.58;;
78716;SDS011;68045;50.042;14.432;2024-02-26T22:42:32;47.70;;;19.77;;
78716;SDS011;68045;50.042;14.432;2024-02-26T22:46:35;41.83;;;18.80;;
78716;SDS011;68045;50.042;14.432;2024-02-26T22:50:36;45.88;;;20.02;;
78716;SDS011;68045;50.042;14.432;2024-02-26T22:54:36;46.55;;;20.50;;
78716;SDS011;68045;50.042;14.432;2024-02-26T22:58:37;43.97;;;21.02;;
78716;SDS011;68045;50.042;14.432;2024-02-26T23:02:38;49.22;;;20.83;;
78716;SDS011;68045;50.042;14.432;2024-02-26T23:06:40;38.67;;;18.30;;
78716;SDS011;68045;50.042;14.432;2024-02-26T23:10:41;45.90;;;19.90;;
78716;SDS011;68045;50.042;14.432;2024-02-26T23:14:42;45.53;;;19.25;;
78716;SDS011;68045;50.042;14.432;2024-02-26T23:18:43;44.88;;;19.67;;
78716;SDS011;68045;50.042;14.432;2024-02-26T23:22:45;39.08;;;19.05;;
78716;SDS011;68045;50.042;14.432;2024-02-26T23:26:47;49.08;;;20.80;;
78716;SDS011;68045;50.042;14.432;2024-02-26T23:30:49;42.70;;;18.75;;
78716;SDS011;68045;50.042;14.432;2024-02-26T23:34:51;42.17;;;20.10;;
78716;SDS011;68045;50.042;14.432;2024-02-26T23:38:52;40.70;;;17.42;;
78716;SDS011;68045;50.042;14.432;2024-02-26T23:42:54;45.60;;;20.42;;